Time;durP1;ratioP1;P1;durP2;ratioP2;P2;SDS_P1;SDS_P2;PMS_P1;PMS_P2;Temp;Humidity;BMP_temperature;BMP_pressure;BME280_temperature;BME280_humidity;BME280_pressure;Samples;Min_cycle;Max_cycle;Signal;HPM_P1;HPM_P2
2023/03/20 00:02:23;;;;;;;31.77;20.80;;;;;;;9.04;100.00;101232.66;5010960;28;20457;-78
2023/03/20 00:04:50;;;;;;;31.65;19.33;;;;;;;9.02;100.00;101237.19;5019458;28;20046;-79
2023/03/20 00:07:18;;;;;;;32.80;19.42;;;;;;;9.06;100.00;101241.19;5014337;28;20081;-78
2023/03/20 00:09:45;;;;;;;33.22;19.70;;;;;;;9.09;100.00;101227.88;5015280;28;20611;-79
2023/03/20 00:12:14;;;;;;;31.25;19.70;;;;;;;9.07;100.00;101227.19;5017603;28;20050;-79
2023/03/20 00:14:41;;;;;;;29.27;18.77;;;;;;;8.98;100.00;101234.00;5015062;28;20046;-79
2023/03/20 00:17:10;;;;;;;32.80;19.50;;;;;;;9.05;100.00;101239.53;5014162;28;20058;-77
2023/03/20 00:19:39;;;;;;;33.85;20.35;;;;;;;9.06;100.00;101236.78;5020343;28;20140;-78
2023/03/20 00:22:06;;;;;;;34.78;20.50;;;;;;;8.98;100.00;101245.28;5014639;28;20052;-79
2023/03/20 00:24:34;;;;;;;36.85;22.63;;;;;;;9.03;100.00;101247.50;5015831;28;20071;-79
2023/03/20 00:27:01;;;;;;;37.50;22.58;;;;;;;8.93;100.00;101242.25;5015384;28;20546;-78
2023/03/20 00:29:31;;;;;;;37.53;21.55;;;;;;;9.01;100.00;101252.03;5015615;28;20052;-78
2023/03/20 00:31:58;;;;;;;38.42;22.50;;;;;;;8.95;100.00;101250.78;5013019;28;20065;-78
2023/03/20 00:34:27;;;;;;;38.55;23.27;;;;;;;8.92;100.00;101256.28;5013318;28;20096;-78
2023/03/20 00:36:55;;;;;;;42.75;22.17;;;;;;;8.93;100.00;101257.91;5019228;28;20054;-76
2023/03/20 00:39:22;;;;;;;38.47;24.15;;;;;;;8.88;100.00;101254.03;5012452;28;20149;-77
2023/03/20 00:41:52;;;;;;;38.42;24.42;;;;;;;8.89;100.00;101260.91;5014376;28;20132;-78
2023/03/20 00:44:23;;;;;;;40.63;23.25;;;;;;;8.92;100.00;101264.09;5031352;28;20132;-79
2023/03/20 00:46:53;;;;;;;39.60;23.25;;;;;;;8.90;100.00;101260.78;5024116;28;20127;-78
2023/03/20 00:49:22;;;;;;;38.17;22.88;;;;;;;8.87;100.00;101262.84;5014867;28;20104;-78
2023/03/20 00:51:48;;;;;;;37.97;23.42;;;;;;;8.88;100.00;101259.25;5021965;28;20409;-78
2023/03/20 00:54:17;;;;;;;38.22;22.25;;;;;;;8.84;100.00;101261.31;5007610;28;20117;-78
2023/03/20 00:56:49;;;;;;;35.45;22.27;;;;;;;8.75;100.00;101258.63;5023357;28;20065;-78
2023/03/20 00:59:20;;;;;;;36.13;22.20;;;;;;;8.71;100.00;101258.06;5015108;28;20173;-78
2023/03/20 01:01:47;;;;;;;31.52;19.95;;;;;;;8.71;100.00;101252.03;5015029;28;20364;-79
2023/03/20 01:04:16;;;;;;;32.33;21.15;;;;;;;8.78;100.00;101255.78;5019211;28;20048;-79
2023/03/20 01:06:46;;;;;;;30.05;19.30;;;;;;;8.77;99.87;101252.34;5019833;28;20073;-77
2023/03/20 01:09:12;;;;;;;31.42;19.15;;;;;;;8.72;99.36;101243.25;5022417;28;20076;-78
2023/03/20 01:11:40;;;;;;;31.55;19.25;;;;;;;8.70;99.38;101243.38;5018849;28;20538;-78
2023/03/20 01:14:13;;;;;;;30.63;18.73;;;;;;;8.70;99.29;101238.16;5019275;28;20037;-79
2023/03/20 01:16:41;;;;;;;35.13;19.48;;;;;;;8.61;99.23;101241.53;5020460;28;20051;-79
2023/03/20 01:19:16;;;;;;;34.92;19.73;;;;;;;8.56;99.28;101238.47;5008919;28;20413;-78
2023/03/20 01:21:43;;;;;;;30.65;18.88;;;;;;;8.50;99.86;101241.63;5018185;28;20062;-80
2023/03/20 01:24:10;;;;;;;35.53;19.95;;;;;;;8.56;99.59;101248.91;5026313;28;20258;-78
2023/03/20 01:26:39;;;;;;;27.48;17.75;;;;;;;8.50;99.75;101255.47;5019755;28;20070;-77
2023/03/20 01:29:18;;;;;;;29.23;18.70;;;;;;;8.49;99.39;101248.63;5016062;28;20137;-77
2023/03/20 01:31:48;;;;;;;32.00;19.08;;;;;;;8.52;99.52;101247.50;5014908;28;20056;-78
2023/03/20 01:34:16;;;;;;;33.72;19.10;;;;;;;8.49;99.48;101238.19;5018313;28;20161;-78
2023/03/20 01:36:48;;;;;;;33.05;18.27;;;;;;;8.55;99.34;101234.19;5014522;28;20085;-78
2023/03/20 01:39:14;;;;;;;30.43;19.37;;;;;;;8.49;99.14;101232.13;5008734;28;20142;-78
2023/03/20 01:41:44;;;;;;;28.48;18.15;;;;;;;8.52;99.51;101226.63;5021215;28;20309;-80
2023/03/20 01:44:19;;;;;;;31.52;19.05;;;;;;;8.44;99.73;101234.28;5013547;28;20053;-78
2023/03/20 01:46:47;;;;;;;30.60;19.60;;;;;;;8.43;100.00;101227.44;5018157;28;20109;-79
2023/03/20 01:49:56;;;;;;;35.03;20.45;;;;;;;8.42;100.00;101223.16;5021348;28;20049;-78
2023/03/20 01:52:23;;;;;;;33.80;19.50;;;;;;;8.36;100.00;101226.28;5010862;28;20049;-78
2023/03/20 01:54:49;;;;;;;35.80;20.55;;;;;;;8.35;100.00;101229.84;5013956;28;20050;-77
2023/03/20 01:57:19;;;;;;;33.90;19.85;;;;;;;8.35;100.00;101224.63;5005646;28;20574;-76
2023/03/20 01:59:49;;;;;;;30.55;18.55;;;;;;;8.31;100.00;101232.66;4996712;28;20488;-78
2023/03/20 02:02:21;;;;;;;31.13;18.75;;;;;;;8.24;100.00;101226.31;5007671;28;20133;-79
2023/03/20 02:04:52;;;;;;;30.98;18.45;;;;;;;8.20;100.00;101237.09;5013382;28;20089;-78
2023/03/20 02:07:21;;;;;;;30.75;19.65;;;;;;;8.12;100.00;101223.88;5009149;28;20057;-79
2023/03/20 02:09:50;;;;;;;32.15;20.05;;;;;;;8.15;100.00;101228.84;5022527;28;20503;-80
2023/03/20 02:12:18;;;;;;;29.20;18.13;;;;;;;8.17;100.00;101248.59;5018467;28;20054;-79
2023/03/20 02:14:46;;;;;;;31.58;19.80;;;;;;;8.18;100.00;101249.44;5018140;28;20534;-79
2023/03/20 02:17:14;;;;;;;29.73;18.38;;;;;;;8.22;100.00;101256.88;5016304;28;20178;-79
2023/03/20 02:19:55;;;;;;;27.67;18.20;;;;;;;8.27;100.00;101259.13;5009620;28;20045;-79
2023/03/20 02:22:50;;;;;;;35.25;19.95;;;;;;;8.33;100.00;101258.66;5014486;28;20054;-76
2023/03/20 02:25:37;;;;;;;30.73;18.85;;;;;;;8.32;100.00;101254.34;5015203;28;20154;-78
2023/03/20 02:28:43;;;;;;;38.03;19.52;;;;;;;8.25;100.00;101253.19;5014946;28;20050;-78
2023/03/20 02:31:53;;;;;;;29.92;18.23;;;;;;;8.21;100.00;101233.53;5006772;28;20054;-79
2023/03/20 02:35:02;;;;;;;32.47;19.02;;;;;;;8.10;100.00;101234.41;5021138;28;20046;-78
2023/03/20 02:37:57;;;;;;;31.13;18.80;;;;;;;7.95;100.00;101235.69;5022660;28;20046;-77
2023/03/20 02:40:33;;;;;;;35.33;19.00;;;;;;;7.93;100.00;101246.22;5015272;28;20046;-79
2023/03/20 02:43:05;;;;;;;31.50;19.17;;;;;;;7.95;100.00;101253.94;5006743;28;20074;-80
2023/03/20 02:45:41;;;;;;;35.35;18.55;;;;;;;7.96;100.00;101237.34;5004000;28;20081;-78
2023/03/20 02:48:15;;;;;;;30.42;17.95;;;;;;;7.86;100.00;101233.81;5011961;28;20110;-80
2023/03/20 02:50:47;;;;;;;31.83;19.70;;;;;;;7.85;100.00;101233.00;5016849;28;20109;-81
2023/03/20 02:53:25;;;;;;;36.63;20.13;;;;;;;7.86;100.00;101236.41;5015632;28;20472;-80
2023/03/20 02:55:57;;;;;;;37.28;19.92;;;;;;;7.89;100.00;101255.25;5010667;28;20074;-79
2023/03/20 02:58:30;;;;;;;34.13;19.92;;;;;;;7.89;100.00;101254.41;5021850;28;20050;-79
2023/03/20 03:01:02;;;;;;;33.58;19.80;;;;;;;7.88;100.00;101260.56;5017109;28;20102;-80
2023/03/20 03:03:34;;;;;;;35.15;19.55;;;;;;;7.99;100.00;101270.97;5020913;28;20054;-80
2023/03/20 03:06:08;;;;;;;39.22;19.73;;;;;;;8.00;100.00;101264.81;5021547;28;20046;-80
2023/03/20 03:08:41;;;;;;;32.22;18.85;;;;;;;8.00;100.00;101270.03;5022115;28;20046;-79
2023/03/20 03:11:08;;;;;;;;;;;;;;;7.95;100.00;101262.56;5021504;28;20053;-79
2023/03/20 03:13:40;;;;;;;34.95;19.17;;;;;;;8.00;100.00;101259.59;5023176;28;19928;-79
2023/03/20 03:16:12;;;;;;;32.22;18.48;;;;;;;7.96;100.00;101266.00;5023675;28;20084;-78
2023/03/20 03:18:42;;;;;;;35.25;20.30;;;;;;;7.94;100.00;101255.72;5022167;28;20088;-78
2023/03/20 03:21:12;;;;;;;32.72;19.33;;;;;;;8.00;100.00;101267.41;5011493;28;20429;-79
2023/03/20 03:23:45;;;;;;;32.72;19.27;;;;;;;8.01;100.00;101270.84;5007282;28;20053;-78
2023/03/20 03:26:18;;;;;;;29.67;18.60;;;;;;;8.03;100.00;101261.97;5010832;28;20531;-79
2023/03/20 03:28:51;;;;;;;32.95;18.23;;;;;;;8.03;100.00;101258.53;5008013;28;20114;-79
2023/03/20 03:31:19;;;;;;;30.70;18.50;;;;;;;7.96;100.00;101235.56;5008280;28;20060;-79
2023/03/20 03:33:48;;;;;;;34.13;18.77;;;;;;;7.89;100.00;101212.72;5014325;28;20046;-76
2023/03/20 03:36:26;;;;;;;32.95;19.25;;;;;;;7.81;100.00;101208.13;5008390;28;20473;-79
2023/03/20 03:38:59;;;;;;;29.50;18.27;;;;;;;7.77;100.00;101224.13;5008271;28;20081;-78
2023/03/20 03:41:31;;;;;;;31.40;18.58;;;;;;;7.76;100.00;101227.69;5008385;28;20543;-78
2023/03/20 03:44:07;;;;;;;30.63;17.42;;;;;;;7.74;100.00;101246.03;5009007;28;20462;-77
2023/03/20 03:46:40;;;;;;;30.25;17.40;;;;;;;7.77;100.00;101258.81;5011306;28;20105;-79
2023/03/20 03:49:15;;;;;;;31.95;17.95;;;;;;;7.80;100.00;101261.19;5000741;28;20133;-78
2023/03/20 03:51:46;;;;;;;30.65;17.52;;;;;;;7.82;100.00;101258.47;5013802;28;20046;-79
2023/03/20 03:54:18;;;;;;;29.92;16.85;;;;;;;7.90;100.00;101262.13;5009332;28;20088;-78
2023/03/20 03:56:47;;;;;;;26.85;15.88;;;;;;;7.83;100.00;101260.13;5007262;28;20049;-77
2023/03/20 03:59:20;;;;;;;30.63;15.95;;;;;;;7.77;100.00;101273.63;5020736;28;20136;-77
2023/03/20 04:01:47;;;;;;;;;;;;;;;7.74;100.00;101281.69;5007512;28;20133;-78
2023/03/20 04:04:19;;;;;;;22.17;13.68;;;;;;;7.72;100.00;101274.00;5020839;28;19921;-76
2023/03/20 04:06:46;;;;;;;26.70;13.90;;;;;;;7.64;100.00;101261.56;5013940;28;20136;-78
2023/03/20 04:09:13;;;;;;;26.85;15.25;;;;;;;7.70;100.00;101265.47;5013011;28;20081;-77
2023/03/20 04:11:41;;;;;;;23.05;14.60;;;;;;;7.65;100.00;101257.19;5021916;28;20128;-78
2023/03/20 04:14:08;;;;;;;29.90;14.52;;;;;;;7.65;100.00;101258.03;5027157;28;20045;-77
2023/03/20 04:16:34;;;;;;;22.38;13.88;;;;;;;7.68;100.00;101267.38;5027191;28;20056;-77
2023/03/20 04:19:01;;;;;;;26.15;15.15;;;;;;;7.60;100.00;101262.75;5026529;28;20054;-78
2023/03/20 04:21:27;;;;;;;23.95;13.98;;;;;;;7.58;100.00;101256.84;5016164;28;20461;-78
2023/03/20 04:23:54;;;;;;;25.17;14.07;;;;;;;7.57;100.00;101268.22;5008771;28;20049;-78
2023/03/20 04:26:21;;;;;;;28.52;15.05;;;;;;;7.56;100.00;101255.34;5016666;28;20110;-78
2023/03/20 04:28:49;;;;;;;21.98;13.48;;;;;;;7.47;100.00;101256.88;5016010;28;20089;-78
2023/03/20 04:31:16;;;;;;;25.63;14.98;;;;;;;7.40;100.00;101262.69;5004315;28;20083;-78
2023/03/20 04:33:42;;;;;;;26.48;15.02;;;;;;;7.39;100.00;101256.66;5010499;28;20050;-78
2023/03/20 04:36:10;;;;;;;25.20;14.98;;;;;;;7.30;100.00;101253.00;5015474;28;20133;-78
2023/03/20 04:38:37;;;;;;;24.17;14.50;;;;;;;7.23;100.00;101244.00;5015919;28;20050;-78
2023/03/20 04:41:03;;;;;;;27.90;14.98;;;;;;;7.19;100.00;101253.00;5015618;28;20045;-76
2023/03/20 04:43:30;;;;;;;24.15;14.55;;;;;;;7.21;100.00;101247.66;5000208;28;20136;-78
2023/03/20 04:45:59;;;;;;;28.65;14.38;;;;;;;7.18;100.00;101242.69;5008613;28;20129;-78
2023/03/20 04:48:26;;;;;;;26.80;15.25;;;;;;;7.18;100.00;101233.13;5003766;28;20252;-77
2023/03/20 04:50:53;;;;;;;27.52;15.00;;;;;;;7.10;100.00;101245.06;4993846;28;20043;-78
2023/03/20 04:53:20;;;;;;;23.83;13.60;;;;;;;7.14;100.00;101244.72;4997530;28;20050;-77
2023/03/20 04:55:46;;;;;;;26.63;14.38;;;;;;;7.07;100.00;101246.16;5015218;28;20544;-77
2023/03/20 04:58:13;;;;;;;26.63;15.23;;;;;;;7.08;100.00;101254.78;5009960;28;20054;-77
2023/03/20 05:00:40;;;;;;;29.02;15.43;;;;;;;7.06;100.00;101261.88;5003948;28;20477;-77
2023/03/20 05:03:08;;;;;;;31.83;15.55;;;;;;;7.03;100.00;101249.13;5013542;28;20046;-78
2023/03/20 05:05:36;;;;;;;25.88;14.20;;;;;;;6.95;100.00;101255.72;5014907;28;20124;-78
2023/03/20 05:08:04;;;;;;;29.48;15.63;;;;;;;6.89;100.00;101247.56;5010709;28;20058;-76
2023/03/20 05:10:30;;;;;;;32.03;16.50;;;;;;;6.87;100.00;101245.06;5012393;28;20050;-77
2023/03/20 05:12:57;;;;;;;25.83;15.43;;;;;;;6.85;100.00;101244.38;5013271;28;20085;-78
2023/03/20 05:15:24;;;;;;;27.30;15.02;;;;;;;6.87;100.00;101247.69;5016362;28;20145;-77
2023/03/20 05:17:50;;;;;;;29.77;15.40;;;;;;;6.85;100.00;101246.97;5012166;28;20077;-77
2023/03/20 05:20:18;;;;;;;27.85;15.90;;;;;;;6.79;100.00;101252.63;5014555;28;20058;-77
2023/03/20 05:22:49;;;;;;;28.58;16.80;;;;;;;6.77;100.00;101248.50;5012857;28;20044;-78
2023/03/20 05:25:15;;;;;;;25.45;14.50;;;;;;;6.76;100.00;101242.47;5015784;28;20089;-78
2023/03/20 05:27:43;;;;;;;24.45;14.48;;;;;;;6.87;100.00;101245.06;5016832;28;20141;-78
2023/03/20 05:30:11;;;;;;;31.65;16.45;;;;;;;6.87;100.00;101245.06;5016027;28;20049;-78
2023/03/20 05:32:39;;;;;;;29.92;14.90;;;;;;;6.86;100.00;101243.41;5004788;28;20450;-78
2023/03/20 05:35:07;;;;;;;25.45;14.60;;;;;;;6.81;100.00;101236.91;5014047;28;20053;-78
2023/03/20 05:37:35;;;;;;;30.17;15.43;;;;;;;6.82;100.00;101231.59;5013366;28;20154;-77
2023/03/20 05:40:04;;;;;;;27.42;15.50;;;;;;;6.82;100.00;101239.41;5013579;28;20056;-77
2023/03/20 05:42:34;;;;;;;25.73;15.43;;;;;;;6.73;100.00;101242.69;5013986;28;20073;-78
2023/03/20 05:45:00;;;;;;;27.05;14.32;;;;;;;6.77;100.00;101246.72;5012043;28;20092;-78
2023/03/20 05:47:27;;;;;;;27.92;15.10;;;;;;;6.85;100.00;101246.97;5014708;28;20148;-78
2023/03/20 05:49:53;;;;;;;26.27;15.13;;;;;;;6.78;100.00;101250.97;5017541;28;20050;-78
2023/03/20 05:52:20;;;;;;;27.17;14.38;;;;;;;6.77;100.00;101254.53;5017040;28;20426;-78
2023/03/20 05:54:48;;;;;;;22.23;12.70;;;;;;;6.79;100.00;101250.03;5024446;23;20133;-74
2023/03/20 05:57:16;;;;;;;31.00;14.45;;;;;;;6.72;100.00;101240.19;5013288;28;20109;-77
2023/03/20 05:59:42;;;;;;;26.80;14.45;;;;;;;6.77;100.00;101251.09;5005576;28;20507;-78
2023/03/20 06:02:09;;;;;;;26.08;14.73;;;;;;;6.82;100.00;101256.78;5008213;28;20076;-78
2023/03/20 06:04:36;;;;;;;26.02;14.60;;;;;;;6.82;100.00;101260.19;5014360;28;20551;-77
2023/03/20 06:07:03;;;;;;;26.13;14.38;;;;;;;6.75;100.00;101261.59;4997280;28;20053;-79
2023/03/20 06:09:30;;;;;;;25.88;14.65;;;;;;;6.81;100.00;101268.13;4998999;28;20047;-77
2023/03/20 06:11:58;;;;;;;28.80;14.20;;;;;;;6.81;100.00;101266.34;4995820;28;20050;-77
2023/03/20 06:14:25;;;;;;;30.13;14.77;;;;;;;6.89;100.00;101255.38;4995581;28;20130;-78
2023/03/20 06:16:52;;;;;;;28.92;15.30;;;;;;;6.86;100.00;101248.63;4996097;28;20065;-78
2023/03/20 06:19:20;;;;;;;28.88;14.63;;;;;;;6.88;100.00;101257.13;4997205;28;20061;-78
2023/03/20 06:21:47;;;;;;;29.33;15.02;;;;;;;6.90;100.00;101255.25;5002998;28;20056;-79
2023/03/20 06:24:14;;;;;;;31.25;13.73;;;;;;;7.02;100.00;101265.66;5010993;28;20078;-78
2023/03/20 06:26:41;;;;;;;29.90;14.73;;;;;;;7.16;100.00;101263.63;5004451;28;20084;-78
2023/03/20 06:29:09;;;;;;;24.45;13.77;;;;;;;7.15;100.00;101261.16;5010423;28;20094;-78
2023/03/20 06:31:35;;;;;;;26.50;14.23;;;;;;;7.23;100.00;101249.22;5016875;28;20050;-79
2023/03/20 06:34:02;;;;;;;30.15;14.65;;;;;;;7.36;100.00;101251.69;5012187;28;20078;-78
2023/03/20 06:36:29;;;;;;;29.67;15.18;;;;;;;7.45;100.00;101253.56;5004828;28;20508;-78
2023/03/20 06:38:56;;;;;;;29.85;15.07;;;;;;;7.56;100.00;101248.31;5002687;28;20046;-78
2023/03/20 06:41:22;;;;;;;26.95;15.18;;;;;;;7.82;100.00;101242.81;4996944;28;20089;-78
2023/03/20 06:43:49;;;;;;;26.95;14.90;;;;;;;7.95;100.00;101248.72;5002031;28;20081;-78
2023/03/20 06:46:17;;;;;;;27.65;15.70;;;;;;;8.00;100.00;101243.97;4995658;28;20110;-78
2023/03/20 06:48:44;;;;;;;29.17;16.17;;;;;;;7.89;100.00;101247.44;5001265;28;20304;-77
2023/03/20 06:51:11;;;;;;;28.63;16.73;;;;;;;7.83;100.00;101252.31;5007124;28;20054;-80
2023/03/20 06:53:38;;;;;;;29.67;16.33;;;;;;;7.75;100.00;101246.88;5008119;28;20046;-79
2023/03/20 06:56:05;;;;;;;29.20;15.95;;;;;;;7.83;100.00;101247.09;5005752;28;20125;-80
2023/03/20 06:58:32;;;;;;;27.48;15.40;;;;;;;7.82;99.80;101255.84;5006806;28;20130;-79
2023/03/20 07:00:58;;;;;;;26.35;15.23;;;;;;;7.80;99.57;101270.78;5006204;28;20058;-79
2023/03/20 07:03:27;;;;;;;27.00;15.45;;;;;;;7.84;99.16;101252.19;5008960;28;20137;-79
2023/03/20 07:05:54;;;;;;;28.40;15.40;;;;;;;8.00;99.36;101272.63;5003609;28;20070;-78
2023/03/20 07:08:20;;;;;;;28.88;14.35;;;;;;;8.02;98.83;101275.94;5010001;28;20061;-80
2023/03/20 07:10:47;;;;;;;24.25;14.77;;;;;;;8.13;98.34;101282.88;5010384;28;20086;-79
2023/03/20 07:13:13;;;;;;;29.90;14.85;;;;;;;8.22;98.25;101288.16;5012323;28;20084;-79
2023/03/20 07:15:40;;;;;;;24.50;14.13;;;;;;;8.32;97.69;101293.47;5010030;28;20061;-80
2023/03/20 07:18:07;;;;;;;25.67;13.43;;;;;;;8.32;96.78;101294.31;5002634;28;20088;-80
2023/03/20 07:20:35;;;;;;;24.50;14.98;;;;;;;8.43;96.75;101298.66;5009084;28;20077;-80
2023/03/20 07:23:01;;;;;;;24.33;14.65;;;;;;;8.21;96.18;101298.72;5003183;28;20130;-78
2023/03/20 07:25:28;;;;;;;23.92;15.00;;;;;;;8.13;96.57;101301.13;5004699;28;20097;-79
2023/03/20 07:27:55;;;;;;;29.30;14.13;;;;;;;8.31;96.14;101310.06;5004785;28;20070;-79
2023/03/20 07:30:21;;;;;;;23.63;13.48;;;;;;;8.14;96.08;101311.41;5004026;28;20114;-78
2023/03/20 07:32:48;;;;;;;22.98;13.38;;;;;;;8.15;96.16;101313.06;5002493;28;20086;-79
2023/03/20 07:35:15;;;;;;;23.92;13.95;;;;;;;8.18;95.95;101310.22;5003384;28;20081;-80
2023/03/20 07:37:43;;;;;;;25.02;13.68;;;;;;;8.24;95.94;101311.50;5003461;28;20504;-81
2023/03/20 07:40:11;;;;;;;20.20;12.50;;;;;;;8.18;95.76;101310.22;5004943;28;20111;-80
2023/03/20 07:42:37;;;;;;;21.58;13.57;;;;;;;8.23;95.61;101315.91;5006183;28;20126;-78
2023/03/20 07:45:06;;;;;;;22.58;12.90;;;;;;;8.29;95.01;101318.00;5004827;28;20133;-77
2023/03/20 07:47:36;;;;;;;20.88;11.70;;;;;;;8.38;94.99;101323.47;4999355;28;20061;-80
2023/03/20 07:50:06;;;;;;;19.23;11.13;;;;;;;8.44;94.70;101326.41;5003916;28;20509;-80
2023/03/20 07:52:33;;;;;;;23.90;11.05;;;;;;;8.63;94.55;101323.91;5006130;28;20055;-78
2023/03/20 07:55:01;;;;;;;18.67;11.85;;;;;;;8.72;93.46;101337.16;5004182;28;20081;-79
2023/03/20 07:57:30;;;;;;;22.33;12.00;;;;;;;8.84;93.27;101336.16;5009097;28;20082;-78
2023/03/20 07:59:57;;;;;;;22.52;11.70;;;;;;;8.75;92.44;101332.53;5007867;28;20051;-81
2023/03/20 08:02:34;;;;;;;21.13;10.65;;;;;;;8.94;92.37;101343.09;5014299;28;20026;-85
2023/03/20 08:05:04;;;;;;;21.08;10.52;;;;;;;8.95;91.77;101325.66;5013725;28;20054;-80
2023/03/20 08:07:31;;;;;;;21.50;10.88;;;;;;;9.04;91.17;101342.31;5000326;28;20054;-83
2023/03/20 08:09:57;;;;;;;17.52;9.55;;;;;;;9.08;90.61;101343.69;5007857;28;20074;-79
2023/03/20 08:12:25;;;;;;;19.75;9.27;;;;;;;9.12;90.32;101347.72;4995750;28;20541;-80
2023/03/20 08:14:52;;;;;;;18.25;9.45;;;;;;;9.01;89.57;101343.38;5006330;28;20080;-79
2023/03/20 08:17:19;;;;;;;15.77;9.13;;;;;;;9.04;89.34;101342.31;4999033;28;20058;-79
2023/03/20 08:19:46;;;;;;;18.88;9.43;;;;;;;9.07;89.14;101352.50;4996252;28;20054;-79
2023/03/20 08:22:12;;;;;;;15.40;9.65;;;;;;;8.96;89.01;101351.63;5000742;28;20050;-81
2023/03/20 08:24:39;;;;;;;16.52;10.05;;;;;;;9.05;88.97;101346.56;5005653;28;20086;-80
2023/03/20 08:27:06;;;;;;;17.13;10.10;;;;;;;9.23;88.74;101347.66;5004119;28;20084;-79
2023/03/20 08:29:34;;;;;;;16.83;10.68;;;;;;;9.03;87.77;101345.88;5007431;28;20050;-82
2023/03/20 08:32:01;;;;;;;22.55;10.73;;;;;;;9.20;87.81;101342.69;5003610;28;20113;-79
2023/03/20 08:34:28;;;;;;;19.13;11.30;;;;;;;9.05;87.71;101338.75;5003085;28;20053;-78
2023/03/20 08:36:54;;;;;;;18.83;10.75;;;;;;;9.03;88.01;101345.88;4999291;28;20125;-79
2023/03/20 08:39:21;;;;;;;15.77;10.43;;;;;;;9.01;87.32;101338.16;4996158;28;20129;-81
2023/03/20 08:41:47;;;;;;;18.95;10.73;;;;;;;9.14;86.82;101343.19;5004344;28;20065;-81
2023/03/20 08:44:14;;;;;;;17.67;10.40;;;;;;;9.09;86.63;101346.19;5006221;28;20065;-82
2023/03/20 08:46:45;;;;;;;20.10;10.63;;;;;;;9.31;86.38;101348.66;5001180;28;20046;-82
2023/03/20 08:49:11;;;;;;;17.75;9.57;;;;;;;9.51;86.44;101346.09;5004902;28;20069;-80
2023/03/20 08:51:38;;;;;;;20.77;10.48;;;;;;;9.73;85.55;101335.47;4998604;28;20089;-79
2023/03/20 08:54:05;;;;;;;18.38;10.73;;;;;;;9.65;84.06;101330.06;4997708;28;20314;-79
2023/03/20 08:56:32;;;;;;;20.80;10.93;;;;;;;9.74;83.93;101326.66;4999430;28;20046;-79
2023/03/20 08:58:59;;;;;;;19.80;11.05;;;;;;;9.99;84.23;101325.31;4996952;28;20049;-77
2023/03/20 09:01:25;;;;;;;21.00;11.10;;;;;;;10.02;83.77;101335.53;5000689;28;20085;-80
2023/03/20 09:03:53;;;;;;;20.45;10.38;;;;;;;9.92;83.08;101330.28;5002343;28;20089;-79
2023/03/20 09:06:20;;;;;;;20.77;10.50;;;;;;;9.80;83.04;101330.53;4999658;28;20119;-79
2023/03/20 09:08:46;;;;;;;17.17;10.18;;;;;;;9.80;82.97;101325.31;4996845;28;20078;-79
2023/03/20 09:11:13;;;;;;;17.52;11.00;;;;;;;9.71;82.43;101339.16;4996356;28;20085;-79
2023/03/20 09:13:40;;;;;;;20.95;11.02;;;;;;;9.84;82.93;101334.53;4997690;28;20163;-80
2023/03/20 09:16:07;;;;;;;24.80;11.48;;;;;;;9.96;82.69;101341.28;4998764;28;20073;-82
2023/03/20 09:18:34;;;;;;;18.30;10.13;;;;;;;9.86;82.99;101350.91;5006560;28;20532;-79
2023/03/20 09:21:02;;;;;;;19.27;10.95;;;;;;;9.86;82.54;101330.84;5006073;28;20042;-81
2023/03/20 09:23:29;;;;;;;20.67;10.52;;;;;;;9.76;82.67;101340.44;4993593;28;20137;-77
2023/03/20 09:25:56;;;;;;;20.90;11.13;;;;;;;9.77;82.90;101343.88;4996887;28;20113;-79
2023/03/20 09:28:22;;;;;;;19.70;10.77;;;;;;;9.57;83.25;101349.03;5002702;28;20453;-80
2023/03/20 09:30:49;;;;;;;18.58;9.88;;;;;;;9.75;83.51;101336.16;4994146;28;20046;-80
2023/03/20 09:33:17;;;;;;;21.38;10.77;;;;;;;9.73;82.83;101332.84;5007449;28;20050;-80
2023/03/20 09:35:44;;;;;;;24.00;10.60;;;;;;;9.64;83.11;101342.31;5007049;28;20077;-79
2023/03/20 09:38:13;;;;;;;22.65;10.05;;;;;;;9.92;82.84;101339.94;4995807;28;20054;-79
2023/03/20 09:40:51;;;;;;;17.35;11.10;;;;;;;10.08;82.56;101340.22;5009039;28;20413;-80
2023/03/20 09:43:28;;;;;;;18.70;9.98;;;;;;;10.11;81.81;101329.47;5004635;28;20042;-80
2023/03/20 09:46:07;;;;;;;20.05;9.55;;;;;;;9.92;81.56;101334.69;5013196;28;20067;-79
2023/03/20 09:48:40;;;;;;;17.52;10.45;;;;;;;10.03;81.89;101331.94;5004350;28;20050;-80
2023/03/20 09:51:21;;;;;;;15.88;9.77;;;;;;;10.01;82.04;101327.81;5002501;28;20073;-79
2023/03/20 09:53:52;;;;;;;14.85;9.18;;;;;;;10.02;81.34;101326.84;5004528;28;20046;-81
2023/03/20 09:56:23;;;;;;;24.20;10.75;;;;;;;9.86;79.69;101322.16;5008488;28;20086;-78
2023/03/20 09:58:55;;;;;;;10.27;6.40;;;;;;;9.74;77.19;101312.78;5008448;28;20057;-79
2023/03/20 10:01:29;;;;;;;11.35;6.60;;;;;;;9.98;77.40;101316.66;5004145;28;20497;-79
2023/03/20 10:03:59;;;;;;;14.75;6.60;;;;;;;10.20;76.18;101318.25;5004828;28;20141;-78
2023/03/20 10:06:26;;;;;;;12.80;5.65;;;;;;;10.29;74.67;101314.81;5004656;28;20141;-79
2023/03/20 10:08:54;;;;;;;11.45;5.32;;;;;;;10.43;74.20;101315.34;5007580;28;20106;-78
2023/03/20 10:11:38;;;;;;;11.98;6.28;;;;;;;10.63;74.62;101325.66;5004348;28;20050;-79
2023/03/20 10:14:20;;;;;;;10.95;5.35;;;;;;;10.53;73.80;101310.94;4994813;28;20050;-77
2023/03/20 10:17:04;;;;;;;10.68;5.55;;;;;;;10.54;72.83;101304.72;4996056;28;20077;-79
2023/03/20 10:19:32;;;;;;;12.77;6.90;;;;;;;10.36;73.74;101309.03;5001637;28;20576;-78
2023/03/20 10:22:02;;;;;;;9.68;5.97;;;;;;;10.29;74.20;101320.03;4998456;28;20122;-78
2023/03/20 10:24:36;;;;;;;11.70;5.85;;;;;;;10.28;74.23;101326.22;4998381;28;20046;-78
2023/03/20 10:27:12;;;;;;;11.90;5.50;;;;;;;9.78;75.05;101324.63;4997021;28;20557;-79
2023/03/20 10:29:48;;;;;;;9.65;5.70;;;;;;;9.90;74.88;101328.78;5005108;28;20106;-78
2023/03/20 10:32:25;;;;;;;11.93;5.55;;;;;;;9.83;75.11;101330.28;5007207;28;20081;-78
2023/03/20 10:35:03;;;;;;;11.38;6.30;;;;;;;9.88;75.14;101322.84;5000077;28;20226;-77
2023/03/20 10:37:42;;;;;;;10.88;5.80;;;;;;;10.11;75.27;101316.41;4999416;28;20046;-79
2023/03/20 10:40:29;;;;;;;15.13;6.20;;;;;;;10.01;75.25;101317.34;4989332;28;20640;-78
2023/03/20 10:43:00;;;;;;;10.75;5.80;;;;;;;9.73;75.38;101318.97;4997771;28;20133;-79
2023/03/20 10:45:34;;;;;;;14.90;5.70;;;;;;;9.90;75.40;101315.72;4996113;28;20054;-77
2023/03/20 10:48:07;;;;;;;15.60;5.85;;;;;;;9.78;74.02;101301.91;4994233;28;20050;-78
2023/03/20 10:50:37;;;;;;;11.55;5.72;;;;;;;9.84;74.49;101306.63;4997531;28;20057;-77
2023/03/20 10:53:06;;;;;;;10.05;5.03;;;;;;;9.95;74.39;101314.31;4998441;28;20137;-79
2023/03/20 10:55:38;;;;;;;9.80;5.38;;;;;;;10.02;74.23;101317.22;4996354;28;20089;-77
2023/03/20 10:58:15;;;;;;;14.80;5.80;;;;;;;10.08;75.13;101318.47;4994420;28;20524;-76
2023/03/20 11:00:42;;;;;;;12.02;5.63;;;;;;;9.94;74.94;101306.59;4991620;28;20427;-76
2023/03/20 11:03:21;;;;;;;8.02;5.13;;;;;;;9.81;74.69;101306.88;4993565;28;20074;-78
2023/03/20 11:05:54;;;;;;;14.70;5.50;;;;;;;9.85;75.12;101310.06;4990398;28;20540;-77
2023/03/20 11:08:23;;;;;;;11.85;5.97;;;;;;;9.63;75.90;101311.91;4993250;28;20133;-75
2023/03/20 11:10:59;;;;;;;12.73;6.80;;;;;;;9.51;75.97;101310.34;4991274;28;20042;-77
2023/03/20 11:13:28;;;;;;;12.10;5.88;;;;;;;9.74;76.85;101307.53;4990507;28;20233;-77
2023/03/20 11:15:55;;;;;;;11.35;6.10;;;;;;;9.69;77.29;101312.34;4993543;28;20046;-78
2023/03/20 11:18:31;;;;;;;12.57;5.57;;;;;;;9.97;77.29;101296.69;4990443;28;20133;-76
2023/03/20 11:20:58;;;;;;;11.20;6.03;;;;;;;9.92;76.37;101293.66;4994385;28;20353;-78
2023/03/20 11:23:26;;;;;;;19.80;6.78;;;;;;;9.72;76.09;101296.41;4991475;28;20139;-77
2023/03/20 11:25:59;;;;;;;12.77;6.10;;;;;;;9.64;76.48;101299.69;4995051;28;20105;-77
2023/03/20 11:28:32;;;;;;;12.43;5.88;;;;;;;9.47;77.08;101303.75;4996852;28;20198;-78